Strona główna
METAR-TAF:

METAR-TAF

Lotnisko :

Port lotniczy Chuuk

Weno, Mikronezja

Szerokość geograficzna: 07-28N, Długość geograficzna: 151-51E, wysokość: 3 m

Aktualna obserwacja pogody

Raport powstał 1 godzina i 1 minut temu, godzina 23:50 UTC
Wiatr 10 kt od południe
Temperatura 30°C
Wilgotność 84%
Ciśnienie 1008 hPa
Widzialność: 24.1 km
Mało chmury na wysokości 1400 ft
Rozproszone chmury na wysokości 12000 ft
Zachmurzenie całkowite na wysokości 28000 ft

METAR: PTKK 202350Z 18010KT 15SM FEW014 SCT120 OVC280 30/27 A2978 RMK SLP088 8/171 T03000270 10300 20261 52008

czas: 10:51 (00:51 UTC)

Prognoza

Raport powstał 1 godzina i 22 minut temu, godzina 23:29 UTC
Prognoza ważna od 20 godzina 00 UTC do 20 godzina 24 UTC
Wiatr 6 kt od południe
Widzialność: 10 km
Mało chmury na wysokości 1400 ft
Rozproszone chmury na wysokości 12000 ft
przelotny w pobliże

TAF: PTKK 192329Z 2000/2024 17006KT P6SM VCSH FEW014 SCT120

Obserwacja i prognoza pogody dla ponad 4000 lotnisk (raport METAR i TAF).

Dostępne stacje oznaczono żółtymi i czerwonymi punktami na mapie.

Najedź kursorem aby zobaczyć nazwę stacji.

Kliknij aby zobaczyć obserwacje i prognozy pogody.

Aby zmienić mapę: kliknij na zielony przycisk z czarnym krzyżykiem, aby powiększyć; na zielony przycisk z myślnikiem, aby pomniejszyć; na zielone strzałki, aby przejść do map sąsiednich.


METAR-TAF: